Terminal Aerodrome Forecast
Issued by NWS

Home | Current Version | Previous Version | Text Only | Print | Product List | Glossary On
Versions: 1 2 3 4 5 6 7 8 9 10 11 12 13 14 15 16 17 18 19 20 21 22
000
FTUS46 KSGX 210500
TAFCRQ
TAF
KCRQ 210520Z 2106/2206 26004KT P6SM OVC006
     FM210700 VRB03KT 5SM BR OVC005
      TEMPO 2111/2115 2SM BR OVC005
     FM211500 VRB04KT 5SM BR BKN007
     FM211700 VRB04KT 6SM HZ SCT008
     FM212000 26008KT P6SM SCT012
     FM220200 25005KT P6SM BKN012=

USA.gov is the U.S. government's official web portal to all federal, state and local government web resources and services.